Time;durP1;ratioP1;P1;durP2;ratioP2;P2;SDS_P1;SDS_P2;PMS_P1;PMS_P2;Temp;Humidity;BMP_temperature;BMP_pressure;BME280_temperature;BME280_humidity;BME280_pressure;Samples;Min_cycle;Max_cycle;Signal;HPM_P1;HPM_P2
2021/03/03 00:00:27;;;;;;;;;;;8.10;99.90;;;6.48;65.48;102603.31;5019753;28;19925;-41
2021/03/03 00:02:55;;;;;;;;;;;8.10;99.90;;;6.44;65.68;102602.75;5035987;28;19932;-41
2021/03/03 00:05:22;;;;;;;;;;;8.10;99.90;;;6.42;65.47;102607.47;5018759;28;19932;-41
2021/03/03 00:07:49;;;;;;;;;;;8.10;99.90;;;6.40;65.67;102614.00;5003582;28;20295;-41
2021/03/03 00:10:16;;;;;;;;;;;8.10;99.90;;;6.34;65.74;102610.00;5019497;28;19924;-41
2021/03/03 00:12:44;;;;;;;;;;;8.00;99.90;;;6.38;65.92;102611.47;5003459;28;20299;-41
2021/03/03 00:15:12;;;;;;;;;;;8.00;99.90;;;6.38;66.04;102611.47;5019213;28;19925;-41
2021/03/03 00:17:40;;;;;;;;;;;8.00;99.90;;;6.31;66.39;102613.88;5019106;28;19929;-41
2021/03/03 00:20:08;;;;;;;;;;;8.00;99.90;;;6.24;65.99;102607.31;5003222;28;19925;-41
2021/03/03 00:22:35;;;;;;;;;;;7.90;99.90;;;6.18;66.29;102608.72;5019054;28;20399;-41
2021/03/03 00:25:04;;;;;;;;;;;7.90;99.90;;;6.12;66.55;102605.69;5034781;28;19929;-41
2021/03/03 00:27:32;;;;;;;;;;;7.80;99.90;;;6.06;66.94;102601.69;5019407;28;19924;-41
2021/03/03 00:30:16;;;;;;;;;;;7.70;99.90;;;6.08;67.34;102601.56;5023363;28;19929;-41
2021/03/03 00:32:43;;;;;;;;;;;7.70;99.90;;;6.03;67.35;102608.25;5035426;28;20597;-41
2021/03/03 00:35:11;;;;;;;;;;;7.70;99.90;;;6.05;66.88;102605.38;5018413;28;19931;-41
2021/03/03 00:37:39;;;;;;;;;;;7.70;99.90;;;5.98;67.22;102604.19;5035075;28;20318;-41
2021/03/03 00:40:08;;;;;;;;;;;7.60;99.90;;;5.96;67.23;102607.03;5019037;28;20383;-41
2021/03/03 00:42:36;;;;;;;;;;;7.60;99.90;;;5.96;67.81;102604.31;5035541;28;19925;-41
2021/03/03 00:45:05;;;;;;;;;;;7.60;99.90;;;5.97;67.97;102608.78;5034452;28;19935;-41
2021/03/03 00:47:33;;;;;;;;;;;7.60;99.90;;;5.98;67.51;102612.31;5018590;28;20007;-41
2021/03/03 00:50:06;;;;;;;;;;;7.60;99.90;;;5.94;68.05;102605.47;5051693;28;20122;-41
2021/03/03 00:52:38;;;;;;;;;;;7.60;99.90;;;6.04;67.78;102604.53;5051891;28;19935;-41
2021/03/03 00:55:06;;;;;;;;;;;7.60;99.90;;;6.00;67.03;102599.50;5018100;28;19925;-41
2021/03/03 00:57:39;;;;;;;;;;;7.60;99.90;;;5.93;68.08;102606.47;5035643;28;20461;-41
2021/03/03 01:00:10;;;;;;;;;;;7.60;99.90;;;5.90;67.82;102605.75;5035708;28;19925;-40
2021/03/03 01:02:38;;;;;;;;;;;7.60;99.90;;;5.87;67.87;102606.03;5051596;28;19924;-41
2021/03/03 01:05:07;;;;;;;;;;;7.50;99.90;;;5.87;67.54;102597.91;5050510;28;19936;-40
2021/03/03 01:07:34;;;;;;;;;;;7.50;99.90;;;5.80;68.05;102602.13;5018353;28;20019;-41
2021/03/03 01:10:02;;;;;;;;;;;7.50;99.90;;;5.74;68.80;102608.09;5034789;28;19925;-41
2021/03/03 01:12:31;;;;;;;;;;;7.40;99.90;;;5.68;68.63;102608.66;5019013;28;19925;-41
2021/03/03 01:15:05;;;;;;;;;;;7.40;99.90;;;5.70;68.57;102607.53;5003526;28;19935;-41
2021/03/03 01:17:34;;;;;;;;;;;7.40;99.90;;;5.70;68.37;102598.53;5018562;28;20422;-41
2021/03/03 01:20:05;;;;;;;;;;;7.30;99.90;;;5.70;68.56;102606.66;5051149;28;19939;-41
2021/03/03 01:22:33;;;;;;;;;;;7.40;99.90;;;5.67;69.19;102601.53;5051118;28;19925;-41
2021/03/03 01:25:00;;;;;;;;;;;7.30;99.90;;;5.65;68.27;102603.53;5017228;28;19925;-41
2021/03/03 01:27:27;;;;;;;;;;;7.30;99.90;;;5.65;68.56;102593.53;5002253;28;20311;-41
2021/03/03 01:29:55;;;;;;;;;;;7.30;99.90;;;5.58;69.22;102590.53;5018313;28;20338;-41
2021/03/03 01:32:22;;;;;;;;;;;7.30;99.90;;;5.63;68.90;102597.38;5018123;28;19983;-41
2021/03/03 01:34:49;;;;;;;;;;;7.30;99.90;;;5.59;69.06;102599.50;5033677;28;19971;-41
2021/03/03 01:37:17;;;;;;;;;;;7.20;99.90;;;5.58;68.92;102595.94;5001779;28;19924;-41
2021/03/03 01:39:44;;;;;;;;;;;7.30;99.90;;;5.62;68.44;102585.69;4985745;28;19929;-41
2021/03/03 01:42:12;;;;;;;;;;;7.30;99.90;;;5.70;68.33;102585.88;5001781;28;19947;-41
2021/03/03 01:44:39;;;;;;;;;;;7.30;99.90;;;5.65;68.41;102588.13;5017336;28;20015;-41
2021/03/03 01:47:06;;;;;;;;;;;7.30;99.90;;;5.61;68.75;102581.25;4985669;28;19954;-41
2021/03/03 01:49:34;;;;;;;;;;;7.20;99.90;;;5.60;68.56;102580.41;5017858;28;20011;-41
2021/03/03 01:52:02;;;;;;;;;;;7.30;99.90;;;5.57;68.93;102579.81;5017959;28;19925;-41
2021/03/03 01:54:29;;;;;;;;;;;7.20;99.90;;;5.56;68.85;102578.94;5017000;28;19925;-41
2021/03/03 01:56:58;;;;;;;;;;;7.20;99.90;;;5.57;68.85;102574.41;4985545;28;19929;-41
2021/03/03 01:59:25;;;;;;;;;;;7.20;99.90;;;5.56;68.82;102572.69;5052711;28;19925;-41
2021/03/03 02:01:53;;;;;;;;;;;7.20;99.90;;;5.58;68.98;102571.56;5005813;28;19925;-41
2021/03/03 02:04:20;;;;;;;;;;;7.20;99.90;;;5.55;68.55;102570.97;5021062;28;20010;-41
2021/03/03 02:06:52;;;;;;;;;;;7.20;99.90;;;5.52;68.62;102572.09;5005459;28;19925;-41
2021/03/03 02:09:39;;;;;;;;;;;7.20;99.90;;;5.60;68.54;102577.72;5054636;28;19968;-41
2021/03/03 02:12:19;;;;;;;;;;;7.20;99.90;;;5.56;68.32;102567.28;5054830;28;20310;-41
2021/03/03 02:14:53;;;;;;;;;;;7.20;99.90;;;5.51;68.22;102564.97;5020863;28;19931;-41
2021/03/03 02:17:24;;;;;;;;;;;7.20;99.90;;;5.51;68.35;102564.13;5021566;28;20452;-41
2021/03/03 02:19:53;;;;;;;;;;;7.20;99.90;;;5.52;68.29;102566.69;5037876;28;20359;-41
2021/03/03 02:22:27;;;;;;;;;;;7.20;99.90;;;5.42;69.02;102555.81;5054275;28;19929;-41
2021/03/03 02:25:06;;;;;;;;;;;7.10;99.90;;;5.45;68.87;102560.09;5004446;28;19925;-41
2021/03/03 02:27:33;;;;;;;;;;;7.10;99.90;;;5.43;68.42;102553.97;5037779;28;19935;-41
2021/03/03 02:30:03;;;;;;;;;;;7.10;99.90;;;5.46;68.96;102551.88;5021548;28;19931;-41
2021/03/03 02:32:31;;;;;;;;;;;7.10;99.90;;;5.41;68.56;102548.69;5021292;28;19933;-40
2021/03/03 02:35:00;;;;;;;;;;;7.10;99.90;;;5.41;68.23;102545.13;5037054;28;19932;-41
2021/03/03 02:37:28;;;;;;;;;;;7.00;99.90;;;5.38;68.50;102546.25;5054046;28;19932;-41
2021/03/03 02:39:55;;;;;;;;;;;7.00;99.90;;;5.34;68.40;102542.09;5021350;28;19931;-41
2021/03/03 02:42:23;;;;;;;;;;;7.00;99.90;;;5.31;68.85;102536.97;5021120;28;19928;-41
2021/03/03 02:44:51;;;;;;;;;;;7.00;99.90;;;5.29;69.00;102534.38;5052879;28;19925;-40
2021/03/03 02:47:20;;;;;;;;;;;7.00;99.90;;;5.32;69.57;102533.28;5037403;28;19937;-41
2021/03/03 02:49:48;;;;;;;;;;;7.00;99.90;;;5.38;69.32;102531.88;5020940;28;19925;-41
2021/03/03 02:52:16;;;;;;;;;;;7.00;99.90;;;5.38;68.52;102530.00;5020906;28;19925;-40
2021/03/03 02:54:43;;;;;;;;;;;7.00;99.90;;;5.39;68.62;102529.00;5020131;28;19986;-41
2021/03/03 02:57:11;;;;;;;;;;;7.00;99.90;;;5.36;68.68;102521.16;5037405;28;19925;-41
2021/03/03 02:59:45;;;;;;;;;;;7.00;99.90;;;5.36;68.83;102520.34;5020686;28;20019;-41
2021/03/03 03:02:15;;;;;;;;;;;7.00;99.90;;;5.41;68.24;102509.94;5053703;28;20384;-41
2021/03/03 03:04:46;;;;;;;;;;;7.00;99.90;;;5.36;68.12;102517.63;5019850;28;19925;-41
2021/03/03 03:07:23;;;;;;;;;;;7.00;99.90;;;5.29;68.14;102515.44;5021191;28;19933;-41
2021/03/03 03:09:52;;;;;;;;;;;6.90;99.90;;;5.29;68.57;102520.00;5020605;28;19925;-41
2021/03/03 03:12:23;;;;;;;;;;;7.00;99.90;;;5.27;68.63;102525.53;5035653;28;19929;-41
2021/03/03 03:14:51;;;;;;;;;;;6.90;99.90;;;5.26;68.57;102521.13;5053881;28;19978;-41
2021/03/03 03:17:22;;;;;;;;;;;6.90;99.90;;;5.29;68.74;102522.72;5020490;28;19933;-41
2021/03/03 03:19:52;;;;;;;;;;;6.90;99.90;;;5.29;68.11;102518.16;5036865;28;20015;-41
2021/03/03 03:22:26;;;;;;;;;;;6.90;99.90;;;5.25;68.89;102516.72;5036471;28;19937;-41
2021/03/03 03:24:57;;;;;;;;;;;6.90;99.90;;;5.24;68.67;102515.00;5052337;28;19943;-41
2021/03/03 03:27:26;;;;;;;;;;;6.90;99.90;;;5.21;68.22;102509.00;5020269;28;19929;-41
2021/03/03 03:29:55;;;;;;;;;;;6.90;99.90;;;5.20;68.86;102513.56;5053082;28;19935;-41
2021/03/03 03:32:25;;;;;;;;;;;6.90;99.90;;;5.19;69.29;102514.56;5036618;28;19979;-41
2021/03/03 03:34:55;;;;;;;;;;;6.80;99.90;;;5.16;69.41;102522.94;5035763;28;19924;-41
2021/03/03 03:37:25;;;;;;;;;;;6.80;99.90;;;5.12;69.17;102527.75;5053000;28;19929;-41
2021/03/03 03:39:54;;;;;;;;;;;6.80;99.90;;;5.08;69.63;102522.75;5054158;28;19951;-41
2021/03/03 03:42:22;;;;;;;;;;;6.80;99.90;;;5.05;69.94;102523.88;5053073;28;19928;-41
2021/03/03 03:44:50;;;;;;;;;;;6.70;99.90;;;5.02;70.20;102527.69;5035584;28;19932;-41
2021/03/03 03:47:19;;;;;;;;;;;6.70;99.90;;;5.00;70.59;102518.03;5019753;28;19925;-41
2021/03/03 03:49:48;;;;;;;;;;;6.60;99.90;;;5.00;70.17;102521.56;5019821;28;19931;-41
2021/03/03 03:52:16;;;;;;;;;;;6.70;99.90;;;5.03;69.53;102517.75;5003624;28;19929;-41
2021/03/03 03:54:53;;;;;;;;;;;6.70;99.90;;;5.03;70.49;102518.59;5051930;28;20457;-42
2021/03/03 03:57:22;;;;;;;;;;;6.70;99.90;;;5.02;70.21;102525.00;5036197;28;19925;-41
2021/03/03 03:59:50;;;;;;;;;;;6.60;99.90;;;4.99;69.85;102517.16;5052649;28;19925;-40
2021/03/03 04:02:18;;;;;;;;;;;6.60;99.90;;;4.97;69.96;102502.06;5003562;28;19990;-41
2021/03/03 04:04:45;;;;;;;;;;;6.60;99.90;;;4.97;70.08;102512.88;5002531;28;19978;-41
2021/03/03 04:07:13;;;;;;;;;;;6.60;99.90;;;4.94;70.13;102519.41;5019322;28;19979;-41
2021/03/03 04:09:40;;;;;;;;;;;6.60;99.90;;;4.90;70.84;102507.97;5035899;28;20407;-41
2021/03/03 04:12:08;;;;;;;;;;;6.60;99.90;;;4.89;70.40;102514.38;5035902;28;20422;-41
2021/03/03 04:14:37;;;;;;;;;;;6.60;99.90;;;4.90;70.41;102513.38;5035097;28;20421;-40
2021/03/03 04:17:04;;;;;;;;;;;6.60;99.90;;;4.91;71.05;102519.69;5019122;28;19928;-41
2021/03/03 04:19:31;;;;;;;;;;;6.60;99.90;;;4.90;70.22;102517.97;5019319;28;20358;-42
2021/03/03 04:21:59;;;;;;;;;;;6.50;99.90;;;4.88;70.85;102514.53;5018829;28;20399;-41
2021/03/03 04:24:26;;;;;;;;;;;6.50;99.90;;;4.85;70.69;102515.66;5002159;28;19931;-41
2021/03/03 04:26:53;;;;;;;;;;;6.50;99.90;;;4.83;70.98;102511.38;5019096;28;19925;-41
2021/03/03 04:29:20;;;;;;;;;;;6.50;99.90;;;4.84;70.81;102513.94;4987019;28;20361;-41
2021/03/03 04:31:47;;;;;;;;;;;6.50;99.90;;;4.85;70.43;102506.69;5035260;28;19979;-41
2021/03/03 04:34:14;;;;;;;;;;;6.50;99.90;;;4.90;70.85;102515.25;5018556;28;19935;-41
2021/03/03 04:37:07;;;;;;;;;;;6.50;99.90;;;5.01;70.52;102508.91;5003312;28;19932;-41
2021/03/03 04:39:34;;;;;;;;;;;6.60;99.90;;;5.02;69.49;102505.22;5035243;28;19933;-40
2021/03/03 04:42:03;;;;;;;;;;;6.60;99.90;;;5.00;70.10;102507.19;5035317;28;20015;-40
2021/03/03 04:44:31;;;;;;;;;;;6.60;99.90;;;4.96;69.82;102512.00;5034535;28;19937;-40
2021/03/03 04:46:59;;;;;;;;;;;6.60;99.90;;;4.94;70.10;102511.28;5035402;28;19931;-40
2021/03/03 04:49:26;;;;;;;;;;;6.60;99.90;;;4.91;69.70;102522.38;5018911;28;20008;-40
2021/03/03 04:51:53;;;;;;;;;;;6.60;99.90;;;5.00;69.96;102518.84;5051652;28;20306;-40
2021/03/03 04:54:20;;;;;;;;;;;6.60;99.90;;;5.04;70.53;102525.75;5018114;28;20284;-40
2021/03/03 04:56:47;;;;;;;;;;;6.60;99.90;;;5.10;70.04;102523.50;5018625;28;19928;-40
2021/03/03 04:59:14;;;;;;;;;;;6.70;99.90;;;5.10;69.36;102523.50;5018716;28;19935;-40
2021/03/03 05:01:41;;;;;;;;;;;6.70;99.90;;;5.08;69.50;102518.19;5051590;28;19947;-40
2021/03/03 05:04:08;;;;;;;;;;;6.70;99.90;;;5.08;69.56;102525.47;5017806;28;19967;-40
2021/03/03 05:06:35;;;;;;;;;;;6.70;99.90;;;5.08;69.04;102515.50;5018484;28;19925;-40
2021/03/03 05:09:02;;;;;;;;;;;6.70;99.90;;;5.11;69.33;102519.78;5034758;28;19931;-40
2021/03/03 05:11:29;;;;;;;;;;;6.70;99.90;;;5.11;69.32;102514.38;5035086;28;19929;-40
2021/03/03 05:13:56;;;;;;;;;;;6.70;99.90;;;5.19;68.61;102506.44;5017794;28;19925;-40
2021/03/03 05:16:23;;;;;;;;;;;6.80;99.90;;;5.16;68.59;102506.72;5051131;28;19929;-40
2021/03/03 05:18:50;;;;;;;;;;;6.80;99.90;;;5.15;68.58;102508.53;5034576;28;20383;-40
2021/03/03 05:21:17;;;;;;;;;;;6.80;99.90;;;5.12;68.39;102503.41;5018121;28;20002;-40
2021/03/03 05:23:44;;;;;;;;;;;6.70;99.90;;;5.15;68.39;102502.28;5050372;28;19929;-40
2021/03/03 05:26:13;;;;;;;;;;;6.70;99.90;;;5.10;69.25;102496.44;5050868;28;20448;-40
2021/03/03 05:28:40;;;;;;;;;;;6.70;99.90;;;5.12;68.82;102505.25;5052308;28;19932;-40
2021/03/03 05:31:07;;;;;;;;;;;6.80;99.90;;;5.11;68.77;102495.44;5050951;28;19932;-40
2021/03/03 05:33:55;;;;;;;;;;;6.70;99.90;;;5.03;68.08;102491.53;5049907;28;20418;-40
2021/03/03 05:36:22;;;;;;;;;;;6.70;99.90;;;5.06;68.10;102487.72;5017906;28;19994;-40
2021/03/03 05:38:49;;;;;;;;;;;6.70;99.90;;;5.04;68.20;102497.81;5051109;28;19932;-40
2021/03/03 05:41:16;;;;;;;;;;;6.70;99.90;;;5.04;68.51;102487.00;5034462;28;20095;-40
2021/03/03 05:43:43;;;;;;;;;;;6.70;99.90;;;5.07;68.26;102491.28;5033718;28;19968;-40
2021/03/03 05:46:12;;;;;;;;;;;6.70;99.90;;;5.14;68.90;102500.56;5050540;28;20016;-40
2021/03/03 05:48:52;;;;;;;;;;;6.70;99.90;;;5.11;68.25;102498.97;5034308;28;19925;-40
2021/03/03 05:51:22;;;;;;;;;;;6.70;99.90;;;5.14;68.44;102492.47;5051882;28;19928;-40
2021/03/03 05:53:51;;;;;;;;;;;6.70;99.90;;;5.15;67.82;102500.41;5051284;28;20388;-40
2021/03/03 05:56:22;;;;;;;;;;;6.80;99.90;;;5.16;68.91;102495.88;5034013;28;19947;-40
2021/03/03 05:58:49;;;;;;;;;;;6.70;99.90;;;5.09;68.90;102492.00;5051976;28;19936;-40
2021/03/03 06:01:17;;;;;;;;;;;6.70;99.90;;;5.13;68.50;102486.16;5034103;28;19931;-40
2021/03/03 06:03:46;;;;;;;;;;;6.80;99.90;;;5.19;68.42;102490.19;5050140;28;19936;-40
2021/03/03 06:06:14;;;;;;;;;;;6.80;99.90;;;5.15;69.00;102500.41;5033981;28;19935;-40
2021/03/03 06:08:41;;;;;;;;;;;6.80;99.90;;;5.07;68.50;102491.28;5051776;28;19932;-40
2021/03/03 06:11:08;;;;;;;;;;;6.70;99.90;;;5.10;68.60;102491.84;5050483;28;19925;-40
2021/03/03 06:13:35;;;;;;;;;;;6.70;99.90;;;5.06;68.83;102485.00;5033665;28;19994;-40
2021/03/03 06:16:04;;;;;;;;;;;6.70;99.90;;;5.01;69.39;102488.09;5033867;28;20441;-40
2021/03/03 06:18:31;;;;;;;;;;;6.60;99.90;;;4.99;69.71;102495.50;5051661;28;20399;-40
2021/03/03 06:20:58;;;;;;;;;;;6.60;99.90;;;5.02;69.47;102492.53;5051698;28;19925;-40
2021/03/03 06:23:30;;;;;;;;;;;6.70;99.90;;;5.06;70.07;102485.00;5050816;28;19932;-41
2021/03/03 06:26:07;;;;;;;;;;;6.70;99.90;;;5.08;70.00;102485.72;5050329;28;19924;-40
2021/03/03 06:28:37;;;;;;;;;;;6.70;99.90;;;5.03;69.96;102490.69;5051496;28;19925;-40
2021/03/03 06:31:24;;;;;;;;;;;6.60;99.90;;;5.05;69.80;102483.31;5051654;28;19929;-40
2021/03/03 06:33:54;;;;;;;;;;;6.70;99.90;;;5.04;69.04;102495.13;5049652;28;19948;-40
2021/03/03 06:39:20;;;;;;;;;;;6.60;99.90;;;5.06;69.55;102495.00;5051459;28;19924;-40
2021/03/03 06:41:49;;;;;;;;;;;6.60;99.90;;;5.06;70.10;102503.09;5051600;28;19925;-40
2021/03/03 06:44:17;;;;;;;;;;;6.70;99.90;;;5.09;69.94;102509.09;5032858;28;20019;-40
2021/03/03 06:47:05;;;;;;;;;;;6.60;99.90;;;5.11;69.24;102500.84;5052852;28;19986;-40
2021/03/03 06:49:32;;;;;;;;;;;6.70;99.90;;;5.07;69.77;102497.53;5055243;28;20019;-40
2021/03/03 06:51:59;;;;;;;;;;;6.70;99.90;;;5.15;69.89;102499.59;5037589;28;19931;-40
2021/03/03 06:54:27;;;;;;;;;;;6.70;99.90;;;5.15;69.40;102503.13;5054351;28;19929;-40
2021/03/03 06:56:55;;;;;;;;;;;6.70;99.90;;;5.18;69.81;102508.28;5037173;28;19929;-40
2021/03/03 06:59:26;;;;;;;;;;;6.70;99.90;;;5.22;69.49;102503.44;5055140;28;19925;-40
2021/03/03 07:01:55;;;;;;;;;;;6.80;99.90;;;5.26;68.79;102499.47;5055141;28;19994;-40
2021/03/03 07:04:35;;;;;;;;;;;6.80;99.90;;;5.31;69.38;102504.50;5052782;28;20379;-40
2021/03/03 07:07:11;;;;;;;;;;;6.80;99.90;;;5.38;69.24;102502.09;5053593;28;19924;-40
2021/03/03 07:09:40;;;;;;;;;;;6.90;99.90;;;5.38;69.06;102504.81;5055036;28;19947;-40
2021/03/03 07:12:18;;;;;;;;;;;6.90;99.90;;;5.40;69.10;102506.38;5053528;28;19924;-40
2021/03/03 07:14:55;;;;;;;;;;;6.90;99.90;;;5.40;69.12;102506.38;5052655;28;20403;-40
2021/03/03 07:17:34;;;;;;;;;;;6.90;99.90;;;5.47;68.60;102507.56;5037137;28;20358;-40
2021/03/03 07:20:12;;;;;;;;;;;7.00;99.90;;;5.59;68.73;102521.84;5054567;28;19931;-40
2021/03/03 07:22:41;;;;;;;;;;;7.10;99.90;;;5.64;68.32;102525.97;5054559;28;19924;-40
2021/03/03 07:25:12;;;;;;;;;;;7.10;99.90;;;5.69;68.18;102521.00;5053757;28;19979;-40
2021/03/03 07:27:41;;;;;;;;;;;7.20;99.90;;;5.74;69.12;102525.00;5053340;28;19950;-40
2021/03/03 07:30:19;;;;;;;;;;;7.20;99.90;;;5.81;68.14;102521.75;5054335;28;19978;-40
2021/03/03 07:32:47;;;;;;;;;;;7.30;99.90;;;5.92;68.15;102515.34;5054550;28;19931;-40
2021/03/03 07:35:33;;;;;;;;;;;7.40;99.90;;;6.07;67.39;102511.25;5038983;28;19924;-40
2021/03/03 07:38:02;;;;;;;;;;;7.50;99.90;;;6.23;65.95;102520.69;5036801;28;19925;-40
2021/03/03 07:40:32;;;;;;;;;;;7.60;99.90;;;6.34;66.89;102523.25;5054121;28;19925;-40
2021/03/03 07:43:01;;;;;;;;;;;7.70;99.90;;;6.43;67.06;102525.13;5036420;28;19925;-40
2021/03/03 07:45:37;;;;;;;;;;;7.80;99.90;;;6.58;66.49;102535.50;5053225;28;19925;-40
2021/03/03 07:48:07;;;;;;;;;;;8.00;99.90;;;6.70;66.21;102533.50;5052865;28;20395;-40
2021/03/03 07:50:35;;;;;;;;;;;8.10;99.90;;;6.82;65.90;102540.50;5054043;28;19929;-40
2021/03/03 07:53:02;;;;;;;;;;;8.20;99.90;;;6.93;65.84;102542.19;5052639;28;19975;-40
2021/03/03 07:55:30;;;;;;;;;;;8.30;99.90;;;7.02;65.55;102544.00;5035447;28;19936;-40
2021/03/03 07:58:00;;;;;;;;;;;8.40;99.90;;;7.16;65.25;102549.97;5035412;28;20019;-40
2021/03/03 08:00:31;;;;;;;;;;;8.50;99.90;;;7.24;64.10;102547.38;5052758;28;19925;-40
2021/03/03 08:03:03;;;;;;;;;;;8.60;99.90;;;7.39;64.57;102533.31;5037230;28;19925;-40
2021/03/03 08:05:46;;;;;;;;;;;8.70;99.90;;;7.48;64.50;102538.69;5038497;28;19925;-40
2021/03/03 08:08:23;;;;;;;;;;;8.80;99.90;;;7.52;63.53;102547.41;5053889;28;19925;-40
2021/03/03 08:10:53;;;;;;;;;;;8.90;99.90;;;7.55;63.43;102535.38;5052486;28;19925;-40
2021/03/03 08:13:31;;;;;;;;;;;8.90;99.90;;;7.63;63.58;102536.34;5051767;28;19948;-40
2021/03/03 08:16:01;;;;;;;;;;;8.90;99.90;;;7.74;64.16;102548.03;5052525;28;19931;-40
2021/03/03 08:18:40;;;;;;;;;;;9.00;99.90;;;7.84;63.91;102545.25;5052331;28;20303;-40
2021/03/03 08:21:08;;;;;;;;;;;9.10;99.90;;;7.95;62.51;102538.72;5053351;28;20020;-40
2021/03/03 08:23:37;;;;;;;;;;;9.20;99.90;;;8.03;63.22;102547.00;5051310;28;19940;-40
2021/03/03 08:26:06;;;;;;;;;;;9.30;99.90;;;8.12;63.38;102539.78;5053301;28;19935;-41
2021/03/03 08:28:36;;;;;;;;;;;9.40;99.90;;;8.20;62.50;102534.44;5053275;28;19924;-40
2021/03/03 08:31:23;;;;;;;;;;;9.50;99.90;;;8.31;62.23;102533.34;5053446;28;20315;-41
2021/03/03 08:33:52;;;;;;;;;;;9.50;99.90;;;8.41;61.85;102522.38;5051335;28;19931;-40
2021/03/03 08:36:24;;;;;;;;;;;9.60;99.90;;;8.52;61.31;102533.03;5053134;28;20015;-40
2021/03/03 08:38:54;;;;;;;;;;;9.70;99.90;;;8.66;60.30;102523.47;5051821;28;20388;-40
2021/03/03 08:41:25;;;;;;;;;;;9.90;99.90;;;8.69;60.73;102520.41;5052950;28;20454;-40
2021/03/03 08:44:11;;;;;;;;;;;9.90;99.90;;;8.72;60.89;102516.53;5051168;28;19929;-41
2021/03/03 08:46:39;;;;;;;;;;;10.00;99.90;;;8.73;61.03;102523.69;5053110;28;19925;-41
2021/03/03 08:49:07;;;;;;;;;;;10.00;99.90;;;8.70;60.32;102524.00;5052858;28;19931;-40
2021/03/03 08:51:38;;;;;;;;;;;10.00;99.90;;;8.72;59.75;102524.69;5052699;28;20474;-41
2021/03/03 08:54:09;;;;;;;;;;;10.00;99.90;;;8.77;59.71;102525.06;5052008;28;19978;-41
2021/03/03 08:56:38;;;;;;;;;;;10.00;99.90;;;8.88;60.27;102529.41;5051361;28;19947;-41
2021/03/03 08:59:14;;;;;;;;;;;10.10;99.90;;;9.00;59.35;102528.13;5052702;28;20364;-40
2021/03/03 09:01:53;;;;;;;;;;;10.20;99.90;;;9.10;59.52;102532.63;5051364;28;19925;-41
2021/03/03 09:04:32;;;;;;;;;;;10.30;99.90;;;9.17;58.57;102529.09;5052017;28;20341;-41
2021/03/03 09:07:03;;;;;;;;;;;10.40;99.90;;;9.23;58.51;102532.19;5051355;28;19948;-40
2021/03/03 09:09:42;;;;;;;;;;;10.50;99.90;;;9.32;58.15;102529.34;5052573;28;19932;-41
2021/03/03 09:12:11;;;;;;;;;;;10.50;99.90;;;9.35;57.29;102531.75;5035053;28;20357;-40
2021/03/03 09:14:40;;;;;;;;;;;10.60;99.90;;;9.50;56.81;102517.47;5051661;28;20314;-41
2021/03/03 09:17:10;;;;;;;;;;;10.70;99.90;;;9.61;58.03;102525.38;5052311;28;19946;-41
2021/03/03 09:19:38;;;;;;;;;;;10.80;99.90;;;9.71;58.49;102519.81;5052676;28;19925;-40
2021/03/03 09:22:23;;;;;;;;;;;10.90;99.90;;;9.82;57.97;102518.66;5034472;28;19971;-40
2021/03/03 09:24:53;;;;;;;;;;;11.00;99.90;;;9.95;56.31;102522.75;5051332;28;20307;-41
2021/03/03 09:27:21;;;;;;;;;;;11.10;99.90;;;10.07;57.65;102514.09;5052439;28;19931;-41
2021/03/03 09:29:50;;;;;;;;;;;11.20;99.90;;;10.17;55.13;102511.19;5052323;28;20011;-41
2021/03/03 09:32:21;;;;;;;;;;;11.30;99.90;;;10.30;56.66;102512.56;5051045;28;19925;-41
2021/03/03 09:35:01;;;;;;;;;;;11.40;99.90;;;10.48;56.47;102510.56;5051408;28;19928;-41
2021/03/03 09:37:40;;;;;;;;;;;11.50;99.90;;;10.64;55.93;102508.88;5050829;28;19928;-41
2021/03/03 09:40:10;;;;;;;;;;;11.70;99.90;;;10.86;55.44;102517.34;5052209;28;19932;-41
2021/03/03 09:42:40;;;;;;;;;;;11.90;99.90;;;11.04;54.80;102509.81;5052180;28;19925;-41
2021/03/03 09:45:10;;;;;;;;;;;12.00;99.90;;;11.13;53.44;102515.25;5051263;28;19925;-41
2021/03/03 09:47:40;;;;;;;;;;;12.10;99.90;;;11.18;52.41;102507.41;5051950;28;19932;-41
2021/03/03 09:50:10;;;;;;;;;;;12.30;99.90;;;11.28;52.77;102505.31;5051890;28;20340;-40
2021/03/03 09:52:41;;;;;;;;;;;12.40;99.90;;;11.39;52.49;102509.53;5052005;28;19929;-41
2021/03/03 09:55:13;;;;;;;;;;;12.40;99.90;;;11.43;52.63;102510.06;5051330;28;19925;-41
2021/03/03 09:57:43;;;;;;;;;;;12.50;99.90;;;11.50;53.21;102513.78;5051955;28;19940;-41
2021/03/03 10:00:14;;;;;;;;;;;12.60;99.90;;;11.50;50.87;102511.03;5051809;28;19932;-41
2021/03/03 10:02:55;;;;;;;;;;;12.60;99.90;;;11.60;51.54;102516.28;5050548;28;19928;-40
2021/03/03 10:05:25;;;;;;;;;;;12.70;99.90;;;11.69;53.32;102503.44;5035074;28;19929;-41
2021/03/03 10:07:56;;;;;;;;;;;12.80;99.90;;;11.74;52.35;102501.00;5050663;28;19932;-41
2021/03/03 10:10:27;;;;;;;;;;;12.80;99.90;;;11.88;53.36;102505.69;5050357;28;19932;-41
2021/03/03 10:12:55;;;;;;;;;;;12.90;99.90;;;11.88;50.80;102502.97;5051704;28;19933;-41
2021/03/03 10:15:29;;;;;;;;;;;13.00;99.90;;;11.92;51.58;102504.31;5050063;28;19925;-41
2021/03/03 10:17:57;;;;;;;;;;;13.00;99.90;;;11.98;51.37;102504.63;5050713;28;20015;-41
2021/03/03 10:20:36;;;;;;;;;;;13.10;99.90;;;12.03;52.13;102500.34;5051083;28;19928;-41
2021/03/03 10:23:08;;;;;;;;;;;13.10;99.90;;;12.08;51.29;102494.31;5055580;28;19948;-40
2021/03/03 10:25:40;;;;;;;;;;;13.20;99.90;;;12.17;53.10;102497.88;5053528;28;20306;-41
2021/03/03 10:28:21;;;;;;;;;;;13.20;99.90;;;12.25;51.68;102499.69;5055723;28;20391;-41
2021/03/03 10:30:52;;;;;;;;;;;13.30;99.90;;;12.32;52.15;102501.50;5037679;28;19924;-41
2021/03/03 10:33:30;;;;;;;;;;;13.40;99.90;;;12.37;50.43;102503.69;5054917;28;20361;-41
2021/03/03 10:36:02;;;;;;;;;;;13.40;99.70;;;12.45;52.54;102495.41;5054051;28;19925;-41
2021/03/03 10:38:30;;;;;;;;;;;13.50;99.90;;;12.49;51.58;102499.50;5055453;28;19924;-41
2021/03/03 10:40:59;;;;;;;;;;;13.60;99.90;;;12.56;51.20;102490.53;5055240;28;20391;-41
2021/03/03 10:43:29;;;;;;;;;;;13.60;99.90;;;12.65;51.80;102494.88;5053490;28;19925;-41
2021/03/03 10:46:07;;;;;;;;;;;13.70;99.90;;;12.73;50.84;102493.97;5054996;28;19928;-41
2021/03/03 10:48:37;;;;;;;;;;;13.80;99.90;;;12.81;49.45;102493.88;5054147;28;19929;-40
2021/03/03 10:51:07;;;;;;;;;;;13.90;98.90;;;12.84;49.82;102492.66;5055297;28;19936;-40
2021/03/03 10:53:45;;;;;;;;;;;13.90;99.10;;;12.95;51.60;102497.66;5054375;28;19928;-41
2021/03/03 10:56:23;;;;;;;;;;;14.00;99.90;;;13.05;51.30;102491.91;5053830;28;19925;-41
2021/03/03 10:58:52;;;;;;;;;;;14.10;99.90;;;13.12;50.75;102490.13;5054810;28;20321;-41
2021/03/03 11:01:19;;;;;;;;;;;14.20;99.70;;;13.18;50.36;102491.25;5055011;28;20396;-41
2021/03/03 11:03:59;;;;;;;;;;;14.30;99.50;;;13.19;49.80;102487.47;5054316;28;19928;-40
2021/03/03 11:06:28;;;;;;;;;;;14.30;98.60;;;13.25;48.94;102481.22;5053620;28;19925;-41
2021/03/03 11:08:57;;;;;;;;;;;14.40;98.20;;;13.37;50.32;102482.47;5054582;28;20295;-41
2021/03/03 11:11:24;;;;;;;;;;;14.40;98.80;;;13.38;47.60;102478.69;5054724;28;20399;-41
2021/03/03 11:13:53;;;;;;;;;;;14.50;96.90;;;13.50;49.69;102476.31;5052872;28;19925;-41
2021/03/03 11:16:21;;;;;;;;;;;14.60;98.30;;;13.60;50.36;102476.03;5054782;28;20024;-41
2021/03/03 11:18:49;;;;;;;;;;;14.60;98.80;;;13.72;49.66;102470.03;5053283;28;19932;-41
2021/03/03 11:21:17;;;;;;;;;;;14.70;98.50;;;13.81;49.33;102472.47;5054571;28;19925;-41
2021/03/03 11:23:45;;;;;;;;;;;14.90;98.10;;;13.92;49.19;102471.09;5053751;28;19965;-41
2021/03/03 11:26:12;;;;;;;;;;;14.90;98.20;;;13.95;49.56;102467.97;5054564;28;20354;-41
2021/03/03 11:28:39;;;;;;;;;;;15.00;98.00;;;14.02;49.84;102464.44;5036899;28;19924;-41
2021/03/03 11:31:08;;;;;;;;;;;15.10;98.20;;;14.02;48.44;102453.47;5053161;28;19924;-41
2021/03/03 11:33:35;;;;;;;;;;;15.10;96.90;;;14.15;50.10;102453.59;5051428;28;19933;-41
2021/03/03 11:36:04;;;;;;;;;;;15.20;98.50;;;14.26;50.37;102454.09;5036508;28;19929;-41
2021/03/03 11:38:32;;;;;;;;;;;15.30;98.60;;;14.34;49.20;102454.00;5054174;28;20406;-41